sensor_id;sensor_type;location;lat;lon;timestamp;temperature;humidity
8178;DHT22;4130;48.740;9.132;2023-04-06T00:00:32;-1.40;99.90
8178;DHT22;4130;48.740;9.132;2023-04-06T00:02:59;-1.40;99.90
8178;DHT22;4130;48.740;9.132;2023-04-06T00:05:26;-1.40;99.90
8178;DHT22;4130;48.740;9.132;2023-04-06T00:07:53;-1.40;99.90
8178;DHT22;4130;48.740;9.132;2023-04-06T00:10:22;-1.30;99.90
8178;DHT22;4130;48.740;9.132;2023-04-06T00:12:49;-1.40;99.90
8178;DHT22;4130;48.740;9.132;2023-04-06T00:15:16;-1.40;99.90
8178;DHT22;4130;48.740;9.132;2023-04-06T00:17:43;-1.40;99.90
8178;DHT22;4130;48.740;9.132;2023-04-06T00:20:10;-1.40;99.90
8178;DHT22;4130;48.740;9.132;2023-04-06T00:22:37;-1.40;99.90
8178;DHT22;4130;48.740;9.132;2023-04-06T00:25:05;-1.40;99.90
8178;DHT22;4130;48.740;9.132;2023-04-06T00:27:33;-1.40;99.90
8178;DHT22;4130;48.740;9.132;2023-04-06T00:30:00;-1.40;99.90
8178;DHT22;4130;48.740;9.132;2023-04-06T00:32:27;-1.40;99.90
8178;DHT22;4130;48.740;9.132;2023-04-06T00:34:54;-1.40;99.90
8178;DHT22;4130;48.740;9.132;2023-04-06T00:37:20;-1.40;99.90
8178;DHT22;4130;48.740;9.132;2023-04-06T00:39:47;-1.50;99.90
8178;DHT22;4130;48.740;9.132;2023-04-06T00:42:14;-1.50;99.90
8178;DHT22;4130;48.740;9.132;2023-04-06T00:44:43;-1.50;99.90
8178;DHT22;4130;48.740;9.132;2023-04-06T00:47:10;-1.50;99.90
8178;DHT22;4130;48.740;9.132;2023-04-06T00:49:37;-1.50;99.90
8178;DHT22;4130;48.740;9.132;2023-04-06T00:52:04;-1.50;99.90
8178;DHT22;4130;48.740;9.132;2023-04-06T00:54:31;-1.50;99.90
8178;DHT22;4130;48.740;9.132;2023-04-06T00:56:58;-1.50;99.90
8178;DHT22;4130;48.740;9.132;2023-04-06T00:59:25;-1.50;99.90
8178;DHT22;4130;48.740;9.132;2023-04-06T01:01:54;-1.50;99.90
8178;DHT22;4130;48.740;9.132;2023-04-06T01:04:21;-1.50;99.90
8178;DHT22;4130;48.740;9.132;2023-04-06T01:06:49;-1.50;99.90
8178;DHT22;4130;48.740;9.132;2023-04-06T01:09:16;-1.50;99.90
8178;DHT22;4130;48.740;9.132;2023-04-06T01:11:43;-1.50;99.90
8178;DHT22;4130;48.740;9.132;2023-04-06T01:14:10;-1.50;99.90
8178;DHT22;4130;48.740;9.132;2023-04-06T01:16:37;-1.60;99.90
8178;DHT22;4130;48.740;9.132;2023-04-06T01:19:08;-1.50;99.90
8178;DHT22;4130;48.740;9.132;2023-04-06T01:21:36;-1.50;99.90
8178;DHT22;4130;48.740;9.132;2023-04-06T01:24:05;-1.50;99.90
8178;DHT22;4130;48.740;9.132;2023-04-06T01:26:33;-1.60;99.90
8178;DHT22;4130;48.740;9.132;2023-04-06T01:29:00;-1.60;99.90
8178;DHT22;4130;48.740;9.132;2023-04-06T01:31:27;-1.60;99.90
8178;DHT22;4130;48.740;9.132;2023-04-06T01:33:54;-1.60;99.90
8178;DHT22;4130;48.740;9.132;2023-04-06T01:36:21;-1.70;99.90
8178;DHT22;4130;48.740;9.132;2023-04-06T01:38:48;-1.70;99.90
8178;DHT22;4130;48.740;9.132;2023-04-06T01:41:17;-1.70;99.90
8178;DHT22;4130;48.740;9.132;2023-04-06T01:43:44;-1.70;99.90
8178;DHT22;4130;48.740;9.132;2023-04-06T01:46:11;-1.80;99.90
8178;DHT22;4130;48.740;9.132;2023-04-06T01:48:38;-1.80;99.90
8178;DHT22;4130;48.740;9.132;2023-04-06T01:51:05;-1.80;99.90
8178;DHT22;4130;48.740;9.132;2023-04-06T01:53:32;-1.90;99.90
8178;DHT22;4130;48.740;9.132;2023-04-06T01:55:59;-1.90;99.90
8178;DHT22;4130;48.740;9.132;2023-04-06T01:58:27;-1.90;99.90
8178;DHT22;4130;48.740;9.132;2023-04-06T02:00:54;-1.90;99.90
8178;DHT22;4130;48.740;9.132;2023-04-06T02:03:21;-1.90;99.90
8178;DHT22;4130;48.740;9.132;2023-04-06T02:05:48;-1.90;99.90
8178;DHT22;4130;48.740;9.132;2023-04-06T02:08:15;-2.00;99.90
8178;DHT22;4130;48.740;9.132;2023-04-06T02:10:42;-2.00;99.90
8178;DHT22;4130;48.740;9.132;2023-04-06T02:13:09;-2.00;99.90
8178;DHT22;4130;48.740;9.132;2023-04-06T02:15:37;-1.90;99.90
8178;DHT22;4130;48.740;9.132;2023-04-06T02:18:04;-1.90;99.90
8178;DHT22;4130;48.740;9.132;2023-04-06T02:20:31;-1.90;99.90
8178;DHT22;4130;48.740;9.132;2023-04-06T02:22:59;-1.90;99.90
8178;DHT22;4130;48.740;9.132;2023-04-06T02:25:26;-2.00;99.90
8178;DHT22;4130;48.740;9.132;2023-04-06T02:27:53;-1.90;99.90
8178;DHT22;4130;48.740;9.132;2023-04-06T02:30:20;-2.00;99.90
8178;DHT22;4130;48.740;9.132;2023-04-06T02:32:48;-2.00;99.90
8178;DHT22;4130;48.740;9.132;2023-04-06T02:35:15;-2.00;99.90
8178;DHT22;4130;48.740;9.132;2023-04-06T02:37:42;-2.00;99.90
8178;DHT22;4130;48.740;9.132;2023-04-06T02:40:10;-2.00;99.90
8178;DHT22;4130;48.740;9.132;2023-04-06T02:42:36;-2.10;99.90
8178;DHT22;4130;48.740;9.132;2023-04-06T02:45:04;-2.10;99.90
8178;DHT22;4130;48.740;9.132;2023-04-06T02:47:31;-2.10;99.90
8178;DHT22;4130;48.740;9.132;2023-04-06T02:49:59;-2.10;99.90
8178;DHT22;4130;48.740;9.132;2023-04-06T02:52:27;-2.10;99.90
8178;DHT22;4130;48.740;9.132;2023-04-06T02:54:54;-2.20;99.90
8178;DHT22;4130;48.740;9.132;2023-04-06T02:57:20;-2.10;99.90
8178;DHT22;4130;48.740;9.132;2023-04-06T02:59:47;-2.10;99.90
8178;DHT22;4130;48.740;9.132;2023-04-06T03:02:14;-2.10;99.90
8178;DHT22;4130;48.740;9.132;2023-04-06T03:04:41;-2.10;99.90
8178;DHT22;4130;48.740;9.132;2023-04-06T03:07:10;-2.20;99.90
8178;DHT22;4130;48.740;9.132;2023-04-06T03:09:37;-2.20;99.90
8178;DHT22;4130;48.740;9.132;2023-04-06T03:12:04;-2.20;99.90
8178;DHT22;4130;48.740;9.132;2023-04-06T03:14:31;-2.20;99.90
8178;DHT22;4130;48.740;9.132;2023-04-06T03:16:58;-2.20;99.90
8178;DHT22;4130;48.740;9.132;2023-04-06T03:19:25;-2.30;99.90
8178;DHT22;4130;48.740;9.132;2023-04-06T03:21:51;-2.20;99.90
8178;DHT22;4130;48.740;9.132;2023-04-06T03:24:20;-2.30;99.90
8178;DHT22;4130;48.740;9.132;2023-04-06T03:26:46;-2.30;99.90
8178;DHT22;4130;48.740;9.132;2023-04-06T03:29:13;-2.30;99.90
8178;DHT22;4130;48.740;9.132;2023-04-06T03:31:40;-2.30;99.90
8178;DHT22;4130;48.740;9.132;2023-04-06T03:34:07;-2.30;99.90
8178;DHT22;4130;48.740;9.132;2023-04-06T03:36:34;-2.30;99.90
8178;DHT22;4130;48.740;9.132;2023-04-06T03:39:01;-2.20;99.90
8178;DHT22;4130;48.740;9.132;2023-04-06T03:41:29;-2.20;99.90
8178;DHT22;4130;48.740;9.132;2023-04-06T03:43:56;-2.20;99.90
8178;DHT22;4130;48.740;9.132;2023-04-06T03:46:23;-2.30;99.90
8178;DHT22;4130;48.740;9.132;2023-04-06T03:48:50;-2.30;99.90
8178;DHT22;4130;48.740;9.132;2023-04-06T03:51:17;-2.30;99.90
8178;DHT22;4130;48.740;9.132;2023-04-06T03:53:44;-2.30;99.90
8178;DHT22;4130;48.740;9.132;2023-04-06T03:56:10;-2.30;99.90
8178;DHT22;4130;48.740;9.132;2023-04-06T03:58:38;-2.40;99.90
8178;DHT22;4130;48.740;9.132;2023-04-06T04:01:05;-2.40;99.90
8178;DHT22;4130;48.740;9.132;2023-04-06T04:03:32;-2.40;99.90
8178;DHT22;4130;48.740;9.132;2023-04-06T04:05:59;-2.40;99.90
8178;DHT22;4130;48.740;9.132;2023-04-06T04:08:26;-2.50;99.90
8178;DHT22;4130;48.740;9.132;2023-04-06T04:10:53;-2.40;99.90
8178;DHT22;4130;48.740;9.132;2023-04-06T04:13:20;-2.50;99.90
8178;DHT22;4130;48.740;9.132;2023-04-06T04:15:48;-2.50;99.90
8178;DHT22;4130;48.740;9.132;2023-04-06T04:18:15;-2.40;99.90
8178;DHT22;4130;48.740;9.132;2023-04-06T04:20:42;-2.40;99.90
8178;DHT22;4130;48.740;9.132;2023-04-06T04:23:08;-2.40;99.90
8178;DHT22;4130;48.740;9.132;2023-04-06T04:25:35;-2.40;99.90
8178;DHT22;4130;48.740;9.132;2023-04-06T04:28:02;-2.40;99.90
8178;DHT22;4130;48.740;9.132;2023-04-06T04:30:29;-2.50;99.90
8178;DHT22;4130;48.740;9.132;2023-04-06T04:32:57;-2.50;99.90
8178;DHT22;4130;48.740;9.132;2023-04-06T04:35:24;-2.50;99.90
8178;DHT22;4130;48.740;9.132;2023-04-06T04:37:51;-2.50;99.90
8178;DHT22;4130;48.740;9.132;2023-04-06T04:40:18;-2.50;99.90
8178;DHT22;4130;48.740;9.132;2023-04-06T04:42:44;-2.50;99.90
8178;DHT22;4130;48.740;9.132;2023-04-06T04:45:11;-2.50;99.90
8178;DHT22;4130;48.740;9.132;2023-04-06T04:47:38;-2.50;99.90
8178;DHT22;4130;48.740;9.132;2023-04-06T04:50:07;-2.50;99.90
8178;DHT22;4130;48.740;9.132;2023-04-06T04:52:34;-2.50;99.90
8178;DHT22;4130;48.740;9.132;2023-04-06T04:55:01;-2.50;99.90
8178;DHT22;4130;48.740;9.132;2023-04-06T04:57:28;-2.50;99.90
8178;DHT22;4130;48.740;9.132;2023-04-06T04:59:55;-2.50;99.90
8178;DHT22;4130;48.740;9.132;2023-04-06T05:02:22;-2.40;99.90
8178;DHT22;4130;48.740;9.132;2023-04-06T05:04:49;-2.50;99.90
8178;DHT22;4130;48.740;9.132;2023-04-06T05:07:17;-2.40;99.90
8178;DHT22;4130;48.740;9.132;2023-04-06T05:09:46;-2.40;99.90
8178;DHT22;4130;48.740;9.132;2023-04-06T05:12:13;-2.50;99.90
8178;DHT22;4130;48.740;9.132;2023-04-06T05:14:40;-2.40;99.90
8178;DHT22;4130;48.740;9.132;2023-04-06T05:17:07;-2.40;99.90
8178;DHT22;4130;48.740;9.132;2023-04-06T05:19:34;-2.30;99.90
8178;DHT22;4130;48.740;9.132;2023-04-06T05:22:00;-2.30;99.90
8178;DHT22;4130;48.740;9.132;2023-04-06T05:24:29;-2.30;99.90
8178;DHT22;4130;48.740;9.132;2023-04-06T05:26:56;-2.30;99.90
8178;DHT22;4130;48.740;9.132;2023-04-06T05:29:22;-2.20;99.90
8178;DHT22;4130;48.740;9.132;2023-04-06T05:31:50;-2.20;99.90
8178;DHT22;4130;48.740;9.132;2023-04-06T05:34:17;-2.20;99.90
8178;DHT22;4130;48.740;9.132;2023-04-06T05:36:44;-2.10;99.90
8178;DHT22;4130;48.740;9.132;2023-04-06T05:39:11;-2.10;99.90
8178;DHT22;4130;48.740;9.132;2023-04-06T05:41:40;-2.00;99.90
8178;DHT22;4130;48.740;9.132;2023-04-06T05:44:07;-1.90;99.90
8178;DHT22;4130;48.740;9.132;2023-04-06T05:46:33;-1.90;99.90
8178;DHT22;4130;48.740;9.132;2023-04-06T05:49:00;-1.80;99.90
8178;DHT22;4130;48.740;9.132;2023-04-06T05:51:27;-1.80;99.90
8178;DHT22;4130;48.740;9.132;2023-04-06T05:53:54;-1.70;99.90
8178;DHT22;4130;48.740;9.132;2023-04-06T05:56:21;-1.70;99.90
8178;DHT22;4130;48.740;9.132;2023-04-06T05:58:50;-1.60;99.90
8178;DHT22;4130;48.740;9.132;2023-04-06T06:01:17;-1.50;99.90
8178;DHT22;4130;48.740;9.132;2023-04-06T06:03:44;-1.50;99.90
8178;DHT22;4130;48.740;9.132;2023-04-06T06:06:11;-1.40;99.90
8178;DHT22;4130;48.740;9.132;2023-04-06T06:08:37;-1.40;99.90
8178;DHT22;4130;48.740;9.132;2023-04-06T06:11:04;-1.40;99.90
8178;DHT22;4130;48.740;9.132;2023-04-06T06:13:31;-1.30;99.90
8178;DHT22;4130;48.740;9.132;2023-04-06T06:16:00;-1.20;99.90
8178;DHT22;4130;48.740;9.132;2023-04-06T06:18:30;-1.10;99.90
8178;DHT22;4130;48.740;9.132;2023-04-06T06:20:57;-1.00;99.90
8178;DHT22;4130;48.740;9.132;2023-04-06T06:23:24;-1.00;99.90
8178;DHT22;4130;48.740;9.132;2023-04-06T06:25:50;-0.90;99.90
8178;DHT22;4130;48.740;9.132;2023-04-06T06:28:17;-0.80;99.90
8178;DHT22;4130;48.740;9.132;2023-04-06T06:30:44;-0.70;99.90
8178;DHT22;4130;48.740;9.132;2023-04-06T06:33:13;-0.70;99.90
8178;DHT22;4130;48.740;9.132;2023-04-06T06:35:40;-0.50;99.90
8178;DHT22;4130;48.740;9.132;2023-04-06T06:38:06;-0.50;99.90
8178;DHT22;4130;48.740;9.132;2023-04-06T06:40:33;-0.40;99.90
8178;DHT22;4130;48.740;9.132;2023-04-06T06:43:00;-0.30;99.90
8178;DHT22;4130;48.740;9.132;2023-04-06T06:45:27;-0.20;99.90
8178;DHT22;4130;48.740;9.132;2023-04-06T06:47:54;-0.10;99.90
8178;DHT22;4130;48.740;9.132;2023-04-06T06:50:23;0.10;99.90
8178;DHT22;4130;48.740;9.132;2023-04-06T06:52:50;0.40;99.90
8178;DHT22;4130;48.740;9.132;2023-04-06T06:55:17;0.70;99.90
8178;DHT22;4130;48.740;9.132;2023-04-06T06:57:45;0.90;99.90
8178;DHT22;4130;48.740;9.132;2023-04-06T07:00:13;1.10;99.90
8178;DHT22;4130;48.740;9.132;2023-04-06T07:02:40;1.30;99.90
8178;DHT22;4130;48.740;9.132;2023-04-06T07:05:07;1.50;99.90
8178;DHT22;4130;48.740;9.132;2023-04-06T07:07:35;1.70;99.90
8178;DHT22;4130;48.740;9.132;2023-04-06T07:10:02;1.90;99.90
8178;DHT22;4130;48.740;9.132;2023-04-06T07:12:29;2.10;99.90
8178;DHT22;4130;48.740;9.132;2023-04-06T07:14:56;2.30;99.90
8178;DHT22;4130;48.740;9.132;2023-04-06T07:17:23;2.40;99.90
8178;DHT22;4130;48.740;9.132;2023-04-06T07:19:49;2.60;99.90
8178;DHT22;4130;48.740;9.132;2023-04-06T07:22:16;2.80;99.90
8178;DHT22;4130;48.740;9.132;2023-04-06T07:24:45;3.00;99.90
8178;DHT22;4130;48.740;9.132;2023-04-06T07:27:11;3.20;99.90
8178;DHT22;4130;48.740;9.132;2023-04-06T07:29:38;3.30;99.90
8178;DHT22;4130;48.740;9.132;2023-04-06T07:32:06;3.50;99.90
8178;DHT22;4130;48.740;9.132;2023-04-06T07:34:32;3.70;99.90
8178;DHT22;4130;48.740;9.132;2023-04-06T07:37:00;3.80;99.90
8178;DHT22;4130;48.740;9.132;2023-04-06T07:39:28;3.90;99.90
8178;DHT22;4130;48.740;9.132;2023-04-06T07:41:56;4.10;99.90
8178;DHT22;4130;48.740;9.132;2023-04-06T07:44:23;4.20;99.90
8178;DHT22;4130;48.740;9.132;2023-04-06T07:46:50;4.50;99.90
8178;DHT22;4130;48.740;9.132;2023-04-06T07:49:17;4.50;99.90
8178;DHT22;4130;48.740;9.132;2023-04-06T07:51:46;4.60;99.90
8178;DHT22;4130;48.740;9.132;2023-04-06T07:54:13;4.80;99.90
8178;DHT22;4130;48.740;9.132;2023-04-06T07:56:40;4.90;99.90
8178;DHT22;4130;48.740;9.132;2023-04-06T07:59:08;5.10;99.90
8178;DHT22;4130;48.740;9.132;2023-04-06T08:01:36;5.20;99.90
8178;DHT22;4130;48.740;9.132;2023-04-06T08:04:03;5.30;99.90
8178;DHT22;4130;48.740;9.132;2023-04-06T08:06:30;5.50;99.90
8178;DHT22;4130;48.740;9.132;2023-04-06T08:08:57;5.60;99.90
8178;DHT22;4130;48.740;9.132;2023-04-06T08:11:24;5.70;99.90
8178;DHT22;4130;48.740;9.132;2023-04-06T08:13:52;5.80;99.90
8178;DHT22;4130;48.740;9.132;2023-04-06T08:16:20;6.00;99.20
8178;DHT22;4130;48.740;9.132;2023-04-06T08:18:47;6.10;98.70
8178;DHT22;4130;48.740;9.132;2023-04-06T08:21:14;6.30;98.30
8178;DHT22;4130;48.740;9.132;2023-04-06T08:23:40;6.30;98.10
8178;DHT22;4130;48.740;9.132;2023-04-06T08:26:07;6.40;97.40
8178;DHT22;4130;48.740;9.132;2023-04-06T08:28:35;6.50;97.00
8178;DHT22;4130;48.740;9.132;2023-04-06T08:31:04;6.70;96.50
8178;DHT22;4130;48.740;9.132;2023-04-06T08:33:32;6.80;96.60
8178;DHT22;4130;48.740;9.132;2023-04-06T08:36:07;7.00;96.50
8178;DHT22;4130;48.740;9.132;2023-04-06T08:38:34;7.30;96.30
8178;DHT22;4130;48.740;9.132;2023-04-06T08:41:07;7.30;96.10
8178;DHT22;4130;48.740;9.132;2023-04-06T08:43:41;7.40;95.00
8178;DHT22;4130;48.740;9.132;2023-04-06T08:46:09;7.50;94.70
8178;DHT22;4130;48.740;9.132;2023-04-06T08:48:38;7.60;94.00
8178;DHT22;4130;48.740;9.132;2023-04-06T08:51:06;7.70;93.60
8178;DHT22;4130;48.740;9.132;2023-04-06T08:53:33;7.90;93.10
8178;DHT22;4130;48.740;9.132;2023-04-06T08:56:00;7.90;93.10
8178;DHT22;4130;48.740;9.132;2023-04-06T08:58:32;8.10;92.80
8178;DHT22;4130;48.740;9.132;2023-04-06T09:00:59;8.20;92.50
8178;DHT22;4130;48.740;9.132;2023-04-06T09:03:28;8.50;91.70
8178;DHT22;4130;48.740;9.132;2023-04-06T09:05:58;8.70;91.10
8178;DHT22;4130;48.740;9.132;2023-04-06T09:08:25;9.00;91.70
8178;DHT22;4130;48.740;9.132;2023-04-06T09:10:52;9.30;92.00
8178;DHT22;4130;48.740;9.132;2023-04-06T09:13:21;9.60;91.70
8178;DHT22;4130;48.740;9.132;2023-04-06T09:15:58;10.10;90.90
8178;DHT22;4130;48.740;9.132;2023-04-06T09:18:29;10.70;90.60
8178;DHT22;4130;48.740;9.132;2023-04-06T09:20:59;11.00;89.70
8178;DHT22;4130;48.740;9.132;2023-04-06T09:23:26;11.30;86.90
8178;DHT22;4130;48.740;9.132;2023-04-06T09:26:07;11.50;86.50
8178;DHT22;4130;48.740;9.132;2023-04-06T09:28:44;11.60;85.60
8178;DHT22;4130;48.740;9.132;2023-04-06T09:31:12;11.70;83.40
8178;DHT22;4130;48.740;9.132;2023-04-06T09:33:41;11.60;85.70
8178;DHT22;4130;48.740;9.132;2023-04-06T09:36:09;12.00;86.00
8178;DHT22;4130;48.740;9.132;2023-04-06T09:38:51;12.70;84.10
8178;DHT22;4130;48.740;9.132;2023-04-06T09:41:23;12.80;82.80
8178;DHT22;4130;48.740;9.132;2023-04-06T09:43:51;12.50;82.50
8178;DHT22;4130;48.740;9.132;2023-04-06T09:46:21;12.50;83.10
8178;DHT22;4130;48.740;9.132;2023-04-06T09:48:49;12.60;81.30
8178;DHT22;4130;48.740;9.132;2023-04-06T09:51:18;12.60;81.70
8178;DHT22;4130;48.740;9.132;2023-04-06T09:53:50;12.70;80.30
8178;DHT22;4130;48.740;9.132;2023-04-06T09:56:22;12.90;81.60
8178;DHT22;4130;48.740;9.132;2023-04-06T09:58:52;13.10;78.80
8178;DHT22;4130;48.740;9.132;2023-04-06T10:01:21;13.40;80.00
8178;DHT22;4130;48.740;9.132;2023-04-06T10:03:54;13.50;79.30
8178;DHT22;4130;48.740;9.132;2023-04-06T10:06:27;13.60;79.20
8178;DHT22;4130;48.740;9.132;2023-04-06T10:08:56;13.70;78.20
8178;DHT22;4130;48.740;9.132;2023-04-06T10:11:23;13.50;78.80
8178;DHT22;4130;48.740;9.132;2023-04-06T10:13:50;13.50;79.60
8178;DHT22;4130;48.740;9.132;2023-04-06T10:16:17;13.10;78.90
8178;DHT22;4130;48.740;9.132;2023-04-06T10:18:47;13.50;78.10
8178;DHT22;4130;48.740;9.132;2023-04-06T10:21:19;13.50;76.30
8178;DHT22;4130;48.740;9.132;2023-04-06T10:23:51;13.60;77.90
8178;DHT22;4130;48.740;9.132;2023-04-06T10:26:21;13.80;74.50
8178;DHT22;4130;48.740;9.132;2023-04-06T10:28:49;13.50;75.70
8178;DHT22;4130;48.740;9.132;2023-04-06T10:31:24;13.50;75.50
8178;DHT22;4130;48.740;9.132;2023-04-06T10:33:55;13.10;74.80
8178;DHT22;4130;48.740;9.132;2023-04-06T10:36:23;13.50;78.40
8178;DHT22;4130;48.740;9.132;2023-04-06T10:38:58;13.90;76.60
8178;DHT22;4130;48.740;9.132;2023-04-06T10:41:33;13.60;73.20
8178;DHT22;4130;48.740;9.132;2023-04-06T10:44:00;13.50;72.60
8178;DHT22;4130;48.740;9.132;2023-04-06T10:46:30;13.60;73.80
8178;DHT22;4130;48.740;9.132;2023-04-06T10:48:58;13.50;72.90
8178;DHT22;4130;48.740;9.132;2023-04-06T10:51:26;13.40;72.50
8178;DHT22;4130;48.740;9.132;2023-04-06T10:53:56;13.30;76.20
8178;DHT22;4130;48.740;9.132;2023-04-06T10:56:24;13.40;75.90
8178;DHT22;4130;48.740;9.132;2023-04-06T10:58:54;13.70;75.20
8178;DHT22;4130;48.740;9.132;2023-04-06T11:01:23;13.60;74.90
8178;DHT22;4130;48.740;9.132;2023-04-06T11:03:50;13.80;74.90
8178;DHT22;4130;48.740;9.132;2023-04-06T11:06:19;13.70;73.10
8178;DHT22;4130;48.740;9.132;2023-04-06T11:08:46;13.70;74.50
8178;DHT22;4130;48.740;9.132;2023-04-06T11:11:16;13.70;72.90
8178;DHT22;4130;48.740;9.132;2023-04-06T11:13:45;13.70;74.50
8178;DHT22;4130;48.740;9.132;2023-04-06T11:16:16;13.60;74.70
8178;DHT22;4130;48.740;9.132;2023-04-06T11:18:53;13.90;75.00
8178;DHT22;4130;48.740;9.132;2023-04-06T11:21:31;14.10;75.00
8178;DHT22;4130;48.740;9.132;2023-04-06T11:24:07;14.10;73.10
8178;DHT22;4130;48.740;9.132;2023-04-06T11:26:39;14.00;74.50
8178;DHT22;4130;48.740;9.132;2023-04-06T11:29:06;14.10;74.10
8178;DHT22;4130;48.740;9.132;2023-04-06T11:31:38;14.30;72.70
8178;DHT22;4130;48.740;9.132;2023-04-06T11:34:09;14.30;74.40
8178;DHT22;4130;48.740;9.132;2023-04-06T11:36:40;14.40;74.50
8178;DHT22;4130;48.740;9.132;2023-04-06T11:39:07;14.30;72.40
8178;DHT22;4130;48.740;9.132;2023-04-06T11:41:34;14.50;71.40
8178;DHT22;4130;48.740;9.132;2023-04-06T11:44:03;14.70;71.50
8178;DHT22;4130;48.740;9.132;2023-04-06T11:46:30;14.60;70.70
8178;DHT22;4130;48.740;9.132;2023-04-06T11:48:58;14.60;72.40
8178;DHT22;4130;48.740;9.132;2023-04-06T11:51:26;14.70;73.30
8178;DHT22;4130;48.740;9.132;2023-04-06T11:53:53;14.80;71.90
8178;DHT22;4130;48.740;9.132;2023-04-06T11:56:24;14.90;71.40
8178;DHT22;4130;48.740;9.132;2023-04-06T11:58:51;15.10;72.80
8178;DHT22;4130;48.740;9.132;2023-04-06T12:01:20;14.90;70.50
8178;DHT22;4130;48.740;9.132;2023-04-06T12:03:47;14.80;72.40
8178;DHT22;4130;48.740;9.132;2023-04-06T12:06:14;14.80;69.30
8178;DHT22;4130;48.740;9.132;2023-04-06T12:08:41;14.80;70.90
8178;DHT22;4130;48.740;9.132;2023-04-06T12:11:08;14.50;67.80
8178;DHT22;4130;48.740;9.132;2023-04-06T12:13:34;14.50;68.50
8178;DHT22;4130;48.740;9.132;2023-04-06T12:16:01;14.50;68.30
8178;DHT22;4130;48.740;9.132;2023-04-06T12:18:30;14.50;71.50
8178;DHT22;4130;48.740;9.132;2023-04-06T12:20:57;14.60;72.10
8178;DHT22;4130;48.740;9.132;2023-04-06T12:23:23;14.60;70.00
8178;DHT22;4130;48.740;9.132;2023-04-06T12:25:50;14.60;71.90
8178;DHT22;4130;48.740;9.132;2023-04-06T12:28:17;14.80;71.50
8178;DHT22;4130;48.740;9.132;2023-04-06T12:30:46;14.60;69.60
8178;DHT22;4130;48.740;9.132;2023-04-06T12:33:12;14.40;69.90
8178;DHT22;4130;48.740;9.132;2023-04-06T12:35:41;14.50;69.10
8178;DHT22;4130;48.740;9.132;2023-04-06T12:38:09;14.60;69.90
8178;DHT22;4130;48.740;9.132;2023-04-06T12:40:37;14.70;69.70
8178;DHT22;4130;48.740;9.132;2023-04-06T12:43:04;14.70;69.30
8178;DHT22;4130;48.740;9.132;2023-04-06T12:45:31;14.80;69.40
8178;DHT22;4130;48.740;9.132;2023-04-06T12:47:58;14.60;66.50
8178;DHT22;4130;48.740;9.132;2023-04-06T12:50:25;14.50;69.50
8178;DHT22;4130;48.740;9.132;2023-04-06T12:52:54;14.60;68.50
8178;DHT22;4130;48.740;9.132;2023-04-06T12:55:20;14.30;65.90
8178;DHT22;4130;48.740;9.132;2023-04-06T12:57:48;14.00;66.70
8178;DHT22;4130;48.740;9.132;2023-04-06T13:00:15;14.00;67.10
8178;DHT22;4130;48.740;9.132;2023-04-06T13:02:42;14.10;67.10
8178;DHT22;4130;48.740;9.132;2023-04-06T13:05:13;14.00;65.40
8178;DHT22;4130;48.740;9.132;2023-04-06T13:07:40;14.20;66.90
8178;DHT22;4130;48.740;9.132;2023-04-06T13:10:09;14.10;66.60
8178;DHT22;4130;48.740;9.132;2023-04-06T13:12:36;14.40;66.80
8178;DHT22;4130;48.740;9.132;2023-04-06T13:15:03;14.80;67.40
8178;DHT22;4130;48.740;9.132;2023-04-06T13:17:30;15.40;68.30
8178;DHT22;4130;48.740;9.132;2023-04-06T13:19:58;15.40;64.80
8178;DHT22;4130;48.740;9.132;2023-04-06T13:22:25;15.30;64.80
8178;DHT22;4130;48.740;9.132;2023-04-06T13:24:51;15.10;65.30
8178;DHT22;4130;48.740;9.132;2023-04-06T13:27:20;15.10;65.40
8178;DHT22;4130;48.740;9.132;2023-04-06T13:29:46;15.10;64.10
8178;DHT22;4130;48.740;9.132;2023-04-06T13:32:14;14.90;65.30
8178;DHT22;4130;48.740;9.132;2023-04-06T13:34:41;14.80;64.90
8178;DHT22;4130;48.740;9.132;2023-04-06T13:37:16;14.60;66.00
8178;DHT22;4130;48.740;9.132;2023-04-06T13:39:43;14.30;63.90
8178;DHT22;4130;48.740;9.132;2023-04-06T13:42:09;14.10;64.00
8178;DHT22;4130;48.740;9.132;2023-04-06T13:44:38;14.20;66.60
8178;DHT22;4130;48.740;9.132;2023-04-06T13:47:05;14.40;65.80
8178;DHT22;4130;48.740;9.132;2023-04-06T13:49:32;14.40;65.10
8178;DHT22;4130;48.740;9.132;2023-04-06T13:51:59;14.40;64.70
8178;DHT22;4130;48.740;9.132;2023-04-06T13:54:26;14.60;64.10
8178;DHT22;4130;48.740;9.132;2023-04-06T13:56:54;14.60;64.40
8178;DHT22;4130;48.740;9.132;2023-04-06T13:59:22;14.80;65.10
8178;DHT22;4130;48.740;9.132;2023-04-06T14:01:50;15.00;64.40
8178;DHT22;4130;48.740;9.132;2023-04-06T14:04:17;15.30;65.00
8178;DHT22;4130;48.740;9.132;2023-04-06T14:06:44;15.70;64.10
8178;DHT22;4130;48.740;9.132;2023-04-06T14:09:11;15.80;63.00
8178;DHT22;4130;48.740;9.132;2023-04-06T14:11:38;15.70;63.70
8178;DHT22;4130;48.740;9.132;2023-04-06T14:14:05;15.60;65.50
8178;DHT22;4130;48.740;9.132;2023-04-06T14:16:32;15.80;63.90
8178;DHT22;4130;48.740;9.132;2023-04-06T14:19:00;15.70;65.00
8178;DHT22;4130;48.740;9.132;2023-04-06T14:21:27;15.70;65.30
8178;DHT22;4130;48.740;9.132;2023-04-06T14:23:53;16.20;66.70
8178;DHT22;4130;48.740;9.132;2023-04-06T14:26:20;16.50;64.40
8178;DHT22;4130;48.740;9.132;2023-04-06T14:28:48;16.20;64.40
8178;DHT22;4130;48.740;9.132;2023-04-06T14:31:16;15.90;63.70
8178;DHT22;4130;48.740;9.132;2023-04-06T14:33:42;15.90;64.40
8178;DHT22;4130;48.740;9.132;2023-04-06T14:36:11;16.00;65.70
8178;DHT22;4130;48.740;9.132;2023-04-06T14:38:37;15.80;63.20
8178;DHT22;4130;48.740;9.132;2023-04-06T14:41:05;15.60;63.40
8178;DHT22;4130;48.740;9.132;2023-04-06T14:43:32;15.50;65.40
8178;DHT22;4130;48.740;9.132;2023-04-06T14:46:00;15.40;65.10
8178;DHT22;4130;48.740;9.132;2023-04-06T14:48:27;15.30;64.90
8178;DHT22;4130;48.740;9.132;2023-04-06T14:50:55;15.60;65.00
8178;DHT22;4130;48.740;9.132;2023-04-06T14:53:23;15.50;63.90
8178;DHT22;4130;48.740;9.132;2023-04-06T14:55:56;15.60;64.20
8178;DHT22;4130;48.740;9.132;2023-04-06T14:58:23;15.40;62.80
8178;DHT22;4130;48.740;9.132;2023-04-06T15:00:55;15.40;64.00
8178;DHT22;4130;48.740;9.132;2023-04-06T15:03:22;15.30;64.80
8178;DHT22;4130;48.740;9.132;2023-04-06T15:05:50;15.30;63.20
8178;DHT22;4130;48.740;9.132;2023-04-06T15:08:17;15.10;62.10
8178;DHT22;4130;48.740;9.132;2023-04-06T15:10:47;14.90;64.30
8178;DHT22;4130;48.740;9.132;2023-04-06T15:13:14;14.70;64.50
8178;DHT22;4130;48.740;9.132;2023-04-06T15:15:41;14.70;62.20
8178;DHT22;4130;48.740;9.132;2023-04-06T15:18:08;14.70;65.50
8178;DHT22;4130;48.740;9.132;2023-04-06T15:20:35;14.70;64.00
8178;DHT22;4130;48.740;9.132;2023-04-06T15:23:02;14.50;64.50
8178;DHT22;4130;48.740;9.132;2023-04-06T15:25:30;14.20;64.40
8178;DHT22;4130;48.740;9.132;2023-04-06T15:27:58;14.00;65.50
8178;DHT22;4130;48.740;9.132;2023-04-06T15:30:25;13.90;65.30
8178;DHT22;4130;48.740;9.132;2023-04-06T15:32:53;13.70;66.40
8178;DHT22;4130;48.740;9.132;2023-04-06T15:35:21;13.60;66.70
8178;DHT22;4130;48.740;9.132;2023-04-06T15:37:48;13.40;66.60
8178;DHT22;4130;48.740;9.132;2023-04-06T15:40:15;13.40;67.40
8178;DHT22;4130;48.740;9.132;2023-04-06T15:42:42;13.40;67.50
8178;DHT22;4130;48.740;9.132;2023-04-06T15:45:10;13.40;66.30
8178;DHT22;4130;48.740;9.132;2023-04-06T15:47:37;13.50;68.00
8178;DHT22;4130;48.740;9.132;2023-04-06T15:50:04;13.40;66.90
8178;DHT22;4130;48.740;9.132;2023-04-06T15:52:31;13.40;68.00
8178;DHT22;4130;48.740;9.132;2023-04-06T15:54:58;13.50;66.00
8178;DHT22;4130;48.740;9.132;2023-04-06T15:57:26;13.50;67.20
8178;DHT22;4130;48.740;9.132;2023-04-06T15:59:53;13.40;67.10
8178;DHT22;4130;48.740;9.132;2023-04-06T16:02:25;13.30;66.90
8178;DHT22;4130;48.740;9.132;2023-04-06T16:04:53;13.20;68.10
8178;DHT22;4130;48.740;9.132;2023-04-06T16:07:21;13.10;68.90